sensor_id;sensor_type;location;lat;lon;timestamp;pressure;altitude;pressure_sealevel;temperature;humidity
11440;BME280;5776;51.814;4.510;2023-04-21T00:00:01;101617.88;;;9.32;98.91
11440;BME280;5776;51.814;4.510;2023-04-21T00:02:27;101615.69;;;9.28;99.19
11440;BME280;5776;51.814;4.510;2023-04-21T00:04:53;101616.75;;;9.27;98.88
11440;BME280;5776;51.814;4.510;2023-04-21T00:07:21;101602.94;;;9.29;99.88
11440;BME280;5776;51.814;4.510;2023-04-21T00:09:47;101605.91;;;9.27;99.76
11440;BME280;5776;51.814;4.510;2023-04-21T00:12:13;101610.25;;;9.28;99.98
11440;BME280;5776;51.814;4.510;2023-04-21T00:14:39;101610.78;;;9.25;99.91
11440;BME280;5776;51.814;4.510;2023-04-21T00:17:05;101613.22;;;9.27;100.00
11440;BME280;5776;51.814;4.510;2023-04-21T00:19:31;101618.91;;;9.25;100.00
11440;BME280;5776;51.814;4.510;2023-04-21T00:21:57;101622.69;;;9.24;100.00
11440;BME280;5776;51.814;4.510;2023-04-21T00:24:26;101625.41;;;9.24;100.00
11440;BME280;5776;51.814;4.510;2023-04-21T00:26:52;101630.25;;;9.22;100.00
11440;BME280;5776;51.814;4.510;2023-04-21T00:29:18;101620.50;;;9.21;100.00
11440;BME280;5776;51.814;4.510;2023-04-21T00:31:43;101612.66;;;9.25;100.00
11440;BME280;5776;51.814;4.510;2023-04-21T00:34:09;101615.38;;;9.25;100.00
11440;BME280;5776;51.814;4.510;2023-04-21T00:36:35;101604.25;;;9.21;100.00
11440;BME280;5776;51.814;4.510;2023-04-21T00:39:02;101594.22;;;9.22;100.00
11440;BME280;5776;51.814;4.510;2023-04-21T00:41:28;101596.13;;;9.21;100.00
11440;BME280;5776;51.814;4.510;2023-04-21T00:44:05;101590.69;;;9.21;100.00
11440;BME280;5776;51.814;4.510;2023-04-21T00:46:32;101586.34;;;9.20;100.00
11440;BME280;5776;51.814;4.510;2023-04-21T00:48:59;101586.34;;;9.20;100.00
11440;BME280;5776;51.814;4.510;2023-04-21T00:51:27;101588.78;;;9.22;100.00
11440;BME280;5776;51.814;4.510;2023-04-21T00:53:54;101582.81;;;9.20;100.00
11440;BME280;5776;51.814;4.510;2023-04-21T00:56:21;101571.16;;;9.19;100.00
11440;BME280;5776;51.814;4.510;2023-04-21T00:58:47;101564.66;;;9.20;100.00
11440;BME280;5776;51.814;4.510;2023-04-21T01:01:14;101560.03;;;9.16;100.00
11440;BME280;5776;51.814;4.510;2023-04-21T01:03:40;101567.31;;;9.15;100.00
11440;BME280;5776;51.814;4.510;2023-04-21T01:06:06;101567.59;;;9.14;100.00
11440;BME280;5776;51.814;4.510;2023-04-21T01:08:33;101574.09;;;9.13;100.00
11440;BME280;5776;51.814;4.510;2023-04-21T01:11:08;101570.31;;;9.14;100.00
11440;BME280;5776;51.814;4.510;2023-04-21T01:13:34;101573.84;;;9.14;100.00
11440;BME280;5776;51.814;4.510;2023-04-21T01:16:00;101577.63;;;9.13;100.00
11440;BME280;5776;51.814;4.510;2023-04-21T01:18:26;101575.19;;;9.12;100.00
11440;BME280;5776;51.814;4.510;2023-04-21T01:20:52;101566.78;;;9.13;100.00
11440;BME280;5776;51.814;4.510;2023-04-21T01:23:18;101567.59;;;9.14;100.00
11440;BME280;5776;51.814;4.510;2023-04-21T01:25:45;101572.47;;;9.12;100.00
11440;BME280;5776;51.814;4.510;2023-04-21T01:28:12;101580.59;;;9.12;100.00
11440;BME280;5776;51.814;4.510;2023-04-21T01:30:38;101570.28;;;9.08;100.00
11440;BME280;5776;51.814;4.510;2023-04-21T01:33:04;101557.81;;;9.13;100.00
11440;BME280;5776;51.814;4.510;2023-04-21T01:35:30;101551.88;;;9.11;100.00
11440;BME280;5776;51.814;4.510;2023-04-21T01:37:56;101546.69;;;9.09;100.00
11440;BME280;5776;51.814;4.510;2023-04-21T01:40:22;101552.13;;;9.09;100.00
11440;BME280;5776;51.814;4.510;2023-04-21T01:42:48;101556.44;;;9.10;100.00
11440;BME280;5776;51.814;4.510;2023-04-21T01:45:14;101554.84;;;9.09;100.00
11440;BME280;5776;51.814;4.510;2023-04-21T01:47:40;101553.75;;;9.10;100.00
11440;BME280;5776;51.814;4.510;2023-04-21T01:50:06;101550.78;;;9.12;100.00
11440;BME280;5776;51.814;4.510;2023-04-21T01:52:32;101546.69;;;9.09;100.00
11440;BME280;5776;51.814;4.510;2023-04-21T01:54:59;101541.53;;;9.07;100.00
11440;BME280;5776;51.814;4.510;2023-04-21T01:57:25;101544.25;;;9.07;100.00
11440;BME280;5776;51.814;4.510;2023-04-21T01:59:51;101538.00;;;9.07;100.00
11440;BME280;5776;51.814;4.510;2023-04-21T02:02:17;101520.94;;;9.06;100.00
11440;BME280;5776;51.814;4.510;2023-04-21T02:04:43;101521.50;;;9.08;100.00
11440;BME280;5776;51.814;4.510;2023-04-21T02:07:09;101519.59;;;9.09;100.00
11440;BME280;5776;51.814;4.510;2023-04-21T02:09:35;101522.03;;;9.05;100.00
11440;BME280;5776;51.814;4.510;2023-04-21T02:12:01;101529.31;;;9.05;100.00
11440;BME280;5776;51.814;4.510;2023-04-21T02:14:27;101528.25;;;9.06;100.00
11440;BME280;5776;51.814;4.510;2023-04-21T02:16:53;101529.03;;;9.01;100.00
11440;BME280;5776;51.814;4.510;2023-04-21T02:19:20;101524.44;;;9.02;100.00
11440;BME280;5776;51.814;4.510;2023-04-21T02:21:46;101509.50;;;8.99;100.00
11440;BME280;5776;51.814;4.510;2023-04-21T02:24:12;101509.75;;;8.98;100.00
11440;BME280;5776;51.814;4.510;2023-04-21T02:26:38;101498.88;;;8.93;100.00
11440;BME280;5776;51.814;4.510;2023-04-21T02:29:04;101504.88;;;8.95;100.00
11440;BME280;5776;51.814;4.510;2023-04-21T02:31:30;101517.88;;;8.98;100.00
11440;BME280;5776;51.814;4.510;2023-04-21T02:33:56;101511.06;;;8.90;100.00
11440;BME280;5776;51.814;4.510;2023-04-21T02:36:22;101508.66;;;8.94;100.00
11440;BME280;5776;51.814;4.510;2023-04-21T02:38:48;101511.94;;;8.96;100.00
11440;BME280;5776;51.814;4.510;2023-04-21T02:41:14;101515.16;;;8.93;100.00
11440;BME280;5776;51.814;4.510;2023-04-21T02:43:40;101516.75;;;8.89;100.00
11440;BME280;5776;51.814;4.510;2023-04-21T02:46:06;101512.13;;;8.84;100.00
11440;BME280;5776;51.814;4.510;2023-04-21T02:48:33;101503.44;;;8.82;100.00
11440;BME280;5776;51.814;4.510;2023-04-21T02:50:59;101506.44;;;8.85;100.00
11440;BME280;5776;51.814;4.510;2023-04-21T02:53:25;101505.31;;;8.81;100.00
11440;BME280;5776;51.814;4.510;2023-04-21T02:55:51;101502.88;;;8.80;100.00
11440;BME280;5776;51.814;4.510;2023-04-21T02:58:17;101498.50;;;8.74;100.00
11440;BME280;5776;51.814;4.510;2023-04-21T03:00:43;101497.72;;;8.78;100.00
11440;BME280;5776;51.814;4.510;2023-04-21T03:03:09;101494.69;;;8.75;100.00
11440;BME280;5776;51.814;4.510;2023-04-21T03:05:35;101494.22;;;8.78;100.00
11440;BME280;5776;51.814;4.510;2023-04-21T03:08:01;101493.38;;;8.77;100.00
11440;BME280;5776;51.814;4.510;2023-04-21T03:10:27;101485.28;;;8.82;100.00
11440;BME280;5776;51.814;4.510;2023-04-21T03:12:53;101476.09;;;8.83;100.00
11440;BME280;5776;51.814;4.510;2023-04-21T03:15:20;101469.34;;;8.86;100.00
11440;BME280;5776;51.814;4.510;2023-04-21T03:17:47;101471.47;;;8.84;100.00
11440;BME280;5776;51.814;4.510;2023-04-21T03:20:13;101480.16;;;8.86;100.00
11440;BME280;5776;51.814;4.510;2023-04-21T03:22:39;101471.25;;;8.85;100.00
11440;BME280;5776;51.814;4.510;2023-04-21T03:25:05;101470.16;;;8.86;100.00
11440;BME280;5776;51.814;4.510;2023-04-21T03:27:32;101472.59;;;8.88;100.00
11440;BME280;5776;51.814;4.510;2023-04-21T03:29:58;101464.72;;;8.86;100.00
11440;BME280;5776;51.814;4.510;2023-04-21T03:32:24;101463.63;;;8.87;100.00
11440;BME280;5776;51.814;4.510;2023-04-21T03:34:50;101455.22;;;8.84;100.00
11440;BME280;5776;51.814;4.510;2023-04-21T03:37:16;101468.22;;;8.82;100.00
11440;BME280;5776;51.814;4.510;2023-04-21T03:39:42;101459.84;;;8.83;100.00
11440;BME280;5776;51.814;4.510;2023-04-21T03:42:08;101457.94;;;8.84;100.00
11440;BME280;5776;51.814;4.510;2023-04-21T03:44:34;101449.25;;;8.82;100.00
11440;BME280;5776;51.814;4.510;2023-04-21T03:47:00;101447.34;;;8.82;100.00
11440;BME280;5776;51.814;4.510;2023-04-21T03:49:28;101444.66;;;8.82;100.00
11440;BME280;5776;51.814;4.510;2023-04-21T03:51:54;101443.59;;;8.83;100.00
11440;BME280;5776;51.814;4.510;2023-04-21T03:54:19;101435.72;;;8.82;100.00
11440;BME280;5776;51.814;4.510;2023-04-21T03:56:45;101434.09;;;8.81;100.00
11440;BME280;5776;51.814;4.510;2023-04-21T03:59:11;101437.06;;;8.79;100.00
11440;BME280;5776;51.814;4.510;2023-04-21T04:01:37;101435.72;;;8.82;100.00
11440;BME280;5776;51.814;4.510;2023-04-21T04:04:04;101438.69;;;8.80;100.00
11440;BME280;5776;51.814;4.510;2023-04-21T04:06:29;101438.94;;;8.79;100.00
11440;BME280;5776;51.814;4.510;2023-04-21T04:08:57;101428.38;;;8.77;100.00
11440;BME280;5776;51.814;4.510;2023-04-21T04:11:23;101430.81;;;8.79;100.00
11440;BME280;5776;51.814;4.510;2023-04-21T04:13:49;101428.66;;;8.76;100.00
11440;BME280;5776;51.814;4.510;2023-04-21T04:16:15;101425.13;;;8.75;100.00
11440;BME280;5776;51.814;4.510;2023-04-21T04:18:41;101430.53;;;8.75;100.00
11440;BME280;5776;51.814;4.510;2023-04-21T04:21:07;101434.06;;;8.76;100.00
11440;BME280;5776;51.814;4.510;2023-04-21T04:23:33;101436.50;;;8.77;100.00
11440;BME280;5776;51.814;4.510;2023-04-21T04:25:59;101426.19;;;8.74;100.00
11440;BME280;5776;51.814;4.510;2023-04-21T04:28:26;101427.84;;;8.75;100.00
11440;BME280;5776;51.814;4.510;2023-04-21T04:30:52;101428.91;;;8.74;100.00
11440;BME280;5776;51.814;4.510;2023-04-21T04:33:20;101430.53;;;8.75;100.00
11440;BME280;5776;51.814;4.510;2023-04-21T04:35:46;101438.38;;;8.77;100.00
11440;BME280;5776;51.814;4.510;2023-04-21T04:38:12;101437.81;;;8.75;100.00
11440;BME280;5776;51.814;4.510;2023-04-21T04:40:41;101437.56;;;8.76;100.00
11440;BME280;5776;51.814;4.510;2023-04-21T04:43:07;101434.06;;;8.76;100.00
11440;BME280;5776;51.814;4.510;2023-04-21T04:45:36;101441.09;;;8.77;100.00
11440;BME280;5776;51.814;4.510;2023-04-21T04:48:02;101431.59;;;8.74;100.00
11440;BME280;5776;51.814;4.510;2023-04-21T04:50:28;101438.66;;;8.75;100.00
11440;BME280;5776;51.814;4.510;2023-04-21T04:52:54;101434.88;;;8.76;100.00
11440;BME280;5776;51.814;4.510;2023-04-21T04:55:22;101435.13;;;8.75;100.00
11440;BME280;5776;51.814;4.510;2023-04-21T04:57:48;101437.03;;;8.74;100.00
11440;BME280;5776;51.814;4.510;2023-04-21T05:00:14;101431.59;;;8.74;100.00
11440;BME280;5776;51.814;4.510;2023-04-21T05:02:40;101431.84;;;8.73;100.00
11440;BME280;5776;51.814;4.510;2023-04-21T05:05:06;101434.31;;;8.74;100.00
11440;BME280;5776;51.814;4.510;2023-04-21T05:07:33;101441.38;;;8.75;100.00
11440;BME280;5776;51.814;4.510;2023-04-21T05:09:58;101439.72;;;8.74;100.00
11440;BME280;5776;51.814;4.510;2023-04-21T05:12:24;101443.00;;;8.76;100.00
11440;BME280;5776;51.814;4.510;2023-04-21T05:14:50;101441.38;;;8.75;100.00
11440;BME280;5776;51.814;4.510;2023-04-21T05:17:16;101444.91;;;8.76;100.00
11440;BME280;5776;51.814;4.510;2023-04-21T05:19:42;101437.81;;;8.75;100.00
11440;BME280;5776;51.814;4.510;2023-04-21T05:22:08;101437.56;;;8.76;100.00
11440;BME280;5776;51.814;4.510;2023-04-21T05:24:34;101445.72;;;8.76;100.00
11440;BME280;5776;51.814;4.510;2023-04-21T05:27:00;101432.69;;;8.73;100.00
11440;BME280;5776;51.814;4.510;2023-04-21T05:29:27;101443.25;;;8.75;100.00
11440;BME280;5776;51.814;4.510;2023-04-21T05:31:53;101443.81;;;8.77;100.00
11440;BME280;5776;51.814;4.510;2023-04-21T05:34:19;101448.16;;;8.78;100.00
11440;BME280;5776;51.814;4.510;2023-04-21T05:36:45;101450.63;;;8.84;100.00
11440;BME280;5776;51.814;4.510;2023-04-21T05:39:13;101455.28;;;8.94;100.00
11440;BME280;5776;51.814;4.510;2023-04-21T05:41:41;101453.94;;;8.97;100.00
11440;BME280;5776;51.814;4.510;2023-04-21T05:44:07;101455.56;;;8.98;100.00
11440;BME280;5776;51.814;4.510;2023-04-21T05:46:33;101457.22;;;8.99;100.00
11440;BME280;5776;51.814;4.510;2023-04-21T05:49:00;101458.03;;;8.99;100.00
11440;BME280;5776;51.814;4.510;2023-04-21T05:51:28;101458.84;;;9.00;100.00
11440;BME280;5776;51.814;4.510;2023-04-21T05:53:54;101470.53;;;9.00;100.00
11440;BME280;5776;51.814;4.510;2023-04-21T05:56:20;101469.44;;;9.01;100.00
11440;BME280;5776;51.814;4.510;2023-04-21T05:58:46;101456.69;;;9.02;100.00
11440;BME280;5776;51.814;4.510;2023-04-21T06:01:12;101468.34;;;9.02;100.00
11440;BME280;5776;51.814;4.510;2023-04-21T06:03:40;101472.69;;;9.03;100.00
11440;BME280;5776;51.814;4.510;2023-04-21T06:06:06;101468.34;;;9.02;100.00
11440;BME280;5776;51.814;4.510;2023-04-21T06:08:32;101471.88;;;9.03;100.00
11440;BME280;5776;51.814;4.510;2023-04-21T06:10:58;101477.88;;;9.10;100.00
11440;BME280;5776;51.814;4.510;2023-04-21T06:13:24;101477.88;;;9.10;100.00
11440;BME280;5776;51.814;4.510;2023-04-21T06:15:53;101478.94;;;9.09;100.00
11440;BME280;5776;51.814;4.510;2023-04-21T06:18:19;101475.69;;;9.07;100.00
11440;BME280;5776;51.814;4.510;2023-04-21T06:20:52;101475.69;;;9.07;100.00
11440;BME280;5776;51.814;4.510;2023-04-21T06:23:19;101474.88;;;9.06;100.00
11440;BME280;5776;51.814;4.510;2023-04-21T06:25:46;101475.94;;;9.00;100.00
11440;BME280;5776;51.814;4.510;2023-04-21T06:28:12;101477.78;;;8.95;100.00
11440;BME280;5776;51.814;4.510;2023-04-21T06:30:38;101470.22;;;8.97;100.00
11440;BME280;5776;51.814;4.510;2023-04-21T06:33:05;101472.88;;;8.92;100.00
11440;BME280;5776;51.814;4.510;2023-04-21T06:35:31;101458.78;;;8.90;100.00
11440;BME280;5776;51.814;4.510;2023-04-21T06:37:57;101466.94;;;8.95;100.00
11440;BME280;5776;51.814;4.510;2023-04-21T06:40:23;101474.84;;;9.01;100.00
11440;BME280;5776;51.814;4.510;2023-04-21T06:42:49;101470.25;;;9.07;100.00
11440;BME280;5776;51.814;4.510;2023-04-21T06:45:15;101465.41;;;9.09;100.00
11440;BME280;5776;51.814;4.510;2023-04-21T06:47:41;101466.78;;;9.12;100.00
11440;BME280;5776;51.814;4.510;2023-04-21T06:50:07;101456.75;;;9.12;100.00
11440;BME280;5776;51.814;4.510;2023-04-21T06:52:33;101469.22;;;9.13;100.00
11440;BME280;5776;51.814;4.510;2023-04-21T06:54:59;101462.72;;;9.14;100.00
11440;BME280;5776;51.814;4.510;2023-04-21T06:57:25;101457.31;;;9.14;100.00
11440;BME280;5776;51.814;4.510;2023-04-21T06:59:51;101457.06;;;9.16;100.00
11440;BME280;5776;51.814;4.510;2023-04-21T07:02:18;101454.06;;;9.17;100.00
11440;BME280;5776;51.814;4.510;2023-04-21T07:04:44;101456.53;;;9.19;100.00
11440;BME280;5776;51.814;4.510;2023-04-21T07:07:10;101450.00;;;9.20;100.00
11440;BME280;5776;51.814;4.510;2023-04-21T07:09:36;101450.00;;;9.20;100.00
11440;BME280;5776;51.814;4.510;2023-04-21T07:12:02;101448.94;;;9.21;100.00
11440;BME280;5776;51.814;4.510;2023-04-21T07:14:28;101453.03;;;9.23;100.00
11440;BME280;5776;51.814;4.510;2023-04-21T07:16:56;101461.16;;;9.23;100.00
11440;BME280;5776;51.814;4.510;2023-04-21T07:19:23;101460.88;;;9.25;100.00
11440;BME280;5776;51.814;4.510;2023-04-21T07:21:48;101459.00;;;9.25;100.00
11440;BME280;5776;51.814;4.510;2023-04-21T07:24:14;101469.56;;;9.27;100.00
11440;BME280;5776;51.814;4.510;2023-04-21T07:26:40;101467.66;;;9.27;100.00
11440;BME280;5776;51.814;4.510;2023-04-21T07:29:06;101457.66;;;9.28;100.00
11440;BME280;5776;51.814;4.510;2023-04-21T07:31:32;101455.75;;;9.28;100.00
11440;BME280;5776;51.814;4.510;2023-04-21T07:33:58;101454.66;;;9.29;100.00
11440;BME280;5776;51.814;4.510;2023-04-21T07:36:24;101464.44;;;9.30;100.00
11440;BME280;5776;51.814;4.510;2023-04-21T07:38:53;101468.78;;;9.32;100.00
11440;BME280;5776;51.814;4.510;2023-04-21T07:41:19;101471.22;;;9.33;100.00
11440;BME280;5776;51.814;4.510;2023-04-21T07:43:45;101473.94;;;9.33;100.00
11440;BME280;5776;51.814;4.510;2023-04-21T07:46:10;101470.13;;;9.34;100.00
11440;BME280;5776;51.814;4.510;2023-04-21T07:48:38;101470.94;;;9.35;100.00
11440;BME280;5776;51.814;4.510;2023-04-21T07:51:05;101468.00;;;9.36;100.00
11440;BME280;5776;51.814;4.510;2023-04-21T07:53:31;101468.53;;;9.38;100.00
11440;BME280;5776;51.814;4.510;2023-04-21T07:55:57;101475.03;;;9.42;100.00
11440;BME280;5776;51.814;4.510;2023-04-21T07:58:23;101466.66;;;9.44;100.00
11440;BME280;5776;51.814;4.510;2023-04-21T08:00:49;101465.56;;;9.45;100.00
11440;BME280;5776;51.814;4.510;2023-04-21T08:03:15;101466.38;;;9.45;100.00
11440;BME280;5776;51.814;4.510;2023-04-21T08:05:42;101462.31;;;9.48;100.00
11440;BME280;5776;51.814;4.510;2023-04-21T08:08:08;101465.03;;;9.48;100.00
11440;BME280;5776;51.814;4.510;2023-04-21T08:10:33;101456.41;;;9.51;100.00
11440;BME280;5776;51.814;4.510;2023-04-21T08:12:59;101460.16;;;9.50;100.00
11440;BME280;5776;51.814;4.510;2023-04-21T08:15:25;101459.91;;;9.51;100.00
11440;BME280;5776;51.814;4.510;2023-04-21T08:17:51;101459.66;;;9.53;100.00
11440;BME280;5776;51.814;4.510;2023-04-21T08:20:18;101454.75;;;9.55;100.00
11440;BME280;5776;51.814;4.510;2023-04-21T08:22:43;101466.16;;;9.57;100.00
11440;BME280;5776;51.814;4.510;2023-04-21T08:25:10;101459.69;;;9.58;100.00
11440;BME280;5776;51.814;4.510;2023-04-21T08:27:39;101460.19;;;9.60;100.00
11440;BME280;5776;51.814;4.510;2023-04-21T08:30:05;101466.47;;;9.61;100.00
11440;BME280;5776;51.814;4.510;2023-04-21T08:32:32;101466.19;;;9.62;99.70
11440;BME280;5776;51.814;4.510;2023-04-21T08:34:58;101456.13;;;9.63;100.00
11440;BME280;5776;51.814;4.510;2023-04-21T08:37:24;101461.56;;;9.63;100.00
11440;BME280;5776;51.814;4.510;2023-04-21T08:39:50;101464.03;;;9.64;99.88
11440;BME280;5776;51.814;4.510;2023-04-21T08:42:16;101461.31;;;9.64;100.00
11440;BME280;5776;51.814;4.510;2023-04-21T08:44:43;101461.88;;;9.66;100.00
11440;BME280;5776;51.814;4.510;2023-04-21T08:47:10;101461.88;;;9.66;100.00
11440;BME280;5776;51.814;4.510;2023-04-21T08:49:38;101459.72;;;9.68;100.00
11440;BME280;5776;51.814;4.510;2023-04-21T08:52:05;101462.13;;;9.70;100.00
11440;BME280;5776;51.814;4.510;2023-04-21T08:54:33;101457.53;;;9.70;100.00
11440;BME280;5776;51.814;4.510;2023-04-21T08:57:01;101450.22;;;9.71;100.00
11440;BME280;5776;51.814;4.510;2023-04-21T08:59:28;101459.97;;;9.72;100.00
11440;BME280;5776;51.814;4.510;2023-04-21T09:04:43;101444.00;;;9.76;100.00
11440;BME280;5776;51.814;4.510;2023-04-21T09:07:09;101443.72;;;9.77;100.00
11440;BME280;5776;51.814;4.510;2023-04-21T09:09:51;101442.09;;;9.81;100.00
11440;BME280;5776;51.814;4.510;2023-04-21T09:12:18;101444.53;;;9.83;100.00
11440;BME280;5776;51.814;4.510;2023-04-21T09:14:44;101439.66;;;9.85;100.00
11440;BME280;5776;51.814;4.510;2023-04-21T09:17:10;101437.50;;;9.87;100.00
11440;BME280;5776;51.814;4.510;2023-04-21T09:19:36;101440.75;;;9.89;100.00
11440;BME280;5776;51.814;4.510;2023-04-21T09:22:02;101444.56;;;9.93;100.00
11440;BME280;5776;51.814;4.510;2023-04-21T09:24:29;101446.19;;;9.94;100.00
11440;BME280;5776;51.814;4.510;2023-04-21T09:26:55;101436.97;;;9.95;100.00
11440;BME280;5776;51.814;4.510;2023-04-21T09:29:25;101441.84;;;9.98;100.00
11440;BME280;5776;51.814;4.510;2023-04-21T09:31:51;101440.53;;;10.01;100.00
11440;BME280;5776;51.814;4.510;2023-04-21T09:34:22;101436.44;;;10.03;100.00
11440;BME280;5776;51.814;4.510;2023-04-21T09:37:01;101442.41;;;10.05;100.00
11440;BME280;5776;51.814;4.510;2023-04-21T09:39:32;101442.94;;;10.07;100.00
11440;BME280;5776;51.814;4.510;2023-04-21T09:41:58;101431.53;;;10.10;100.00
11440;BME280;5776;51.814;4.510;2023-04-21T09:44:27;101430.19;;;10.13;100.00
11440;BME280;5776;51.814;4.510;2023-04-21T09:46:59;101425.31;;;10.15;100.00
11440;BME280;5776;51.814;4.510;2023-04-21T09:49:34;101429.94;;;10.20;100.00
11440;BME280;5776;51.814;4.510;2023-04-21T09:52:01;101423.97;;;10.23;100.00
11440;BME280;5776;51.814;4.510;2023-04-21T09:54:30;101430.25;;;10.38;100.00
11440;BME280;5776;51.814;4.510;2023-04-21T09:57:02;101430.50;;;10.57;100.00
11440;BME280;5776;51.814;4.510;2023-04-21T09:59:34;101419.38;;;10.59;100.00
11440;BME280;5776;51.814;4.510;2023-04-21T10:02:03;101427.78;;;10.57;100.00
11440;BME280;5776;51.814;4.510;2023-04-21T10:04:30;101424.81;;;10.59;100.00
11440;BME280;5776;51.814;4.510;2023-04-21T10:06:58;101414.75;;;10.59;100.00
11440;BME280;5776;51.814;4.510;2023-04-21T10:09:29;101415.84;;;10.64;100.00
11440;BME280;5776;51.814;4.510;2023-04-21T10:11:56;101424.25;;;10.67;100.00
11440;BME280;5776;51.814;4.510;2023-04-21T10:14:24;101414.47;;;10.71;100.00
11440;BME280;5776;51.814;4.510;2023-04-21T10:17:04;101406.56;;;10.75;100.00
11440;BME280;5776;51.814;4.510;2023-04-21T10:19:30;101410.38;;;10.79;100.00
11440;BME280;5776;51.814;4.510;2023-04-21T10:22:00;101407.09;;;10.82;100.00
11440;BME280;5776;51.814;4.510;2023-04-21T10:24:30;101406.00;;;10.83;100.00
11440;BME280;5776;51.814;4.510;2023-04-21T10:26:56;101406.53;;;10.85;100.00
11440;BME280;5776;51.814;4.510;2023-04-21T10:29:33;101398.38;;;10.85;100.00
11440;BME280;5776;51.814;4.510;2023-04-21T10:31:59;101389.94;;;10.92;100.00
11440;BME280;5776;51.814;4.510;2023-04-21T10:39:29;101378.78;;;11.03;100.00
11440;BME280;5776;51.814;4.510;2023-04-21T10:44:53;101376.88;;;11.04;100.00
11440;BME280;5776;51.814;4.510;2023-04-21T10:50:17;101371.38;;;11.14;100.00
11440;BME280;5776;51.814;4.510;2023-04-21T10:52:56;101376.25;;;11.17;100.00
11440;BME280;5776;51.814;4.510;2023-04-21T10:55:27;101368.63;;;11.19;100.00
11440;BME280;5776;51.814;4.510;2023-04-21T10:57:54;101358.84;;;11.23;100.00
11440;BME280;5776;51.814;4.510;2023-04-21T11:00:22;101362.38;;;11.24;100.00
11440;BME280;5776;51.814;4.510;2023-04-21T11:03:00;101366.69;;;11.30;100.00
11440;BME280;5776;51.814;4.510;2023-04-21T11:05:29;101353.63;;;11.32;100.00
11440;BME280;5776;51.814;4.510;2023-04-21T11:08:13;101356.06;;;11.34;100.00
11440;BME280;5776;51.814;4.510;2023-04-21T11:10:44;101349.75;;;11.38;100.00
11440;BME280;5776;51.814;4.510;2023-04-21T11:13:11;101348.16;;;11.37;100.00
11440;BME280;5776;51.814;4.510;2023-04-21T11:15:37;101348.97;;;11.38;100.00
11440;BME280;5776;51.814;4.510;2023-04-21T11:18:03;101350.84;;;11.42;100.00
11440;BME280;5776;51.814;4.510;2023-04-21T11:20:30;101345.38;;;11.48;100.00
11440;BME280;5776;51.814;4.510;2023-04-21T11:22:55;101336.03;;;11.64;100.00
11440;BME280;5776;51.814;4.510;2023-04-21T11:25:22;101332.16;;;11.70;100.00
11440;BME280;5776;51.814;4.510;2023-04-21T11:27:54;101326.94;;;11.79;99.72
11440;BME280;5776;51.814;4.510;2023-04-21T11:30:29;101333.91;;;11.95;99.81
11440;BME280;5776;51.814;4.510;2023-04-21T11:32:56;101327.34;;;12.01;99.61
11440;BME280;5776;51.814;4.510;2023-04-21T11:35:22;101327.84;;;12.03;99.15
11440;BME280;5776;51.814;4.510;2023-04-21T11:37:49;101330.28;;;12.05;98.20
11440;BME280;5776;51.814;4.510;2023-04-21T11:40:17;101317.69;;;12.14;96.19
11440;BME280;5776;51.814;4.510;2023-04-21T11:42:43;101317.38;;;12.16;96.40
11440;BME280;5776;51.814;4.510;2023-04-21T11:45:19;101306.50;;;12.16;96.52
11440;BME280;5776;51.814;4.510;2023-04-21T11:47:46;101298.00;;;12.22;97.28
11440;BME280;5776;51.814;4.510;2023-04-21T11:50:28;101304.94;;;12.33;98.20
11440;BME280;5776;51.814;4.510;2023-04-21T11:52:55;101293.94;;;12.44;97.70
11440;BME280;5776;51.814;4.510;2023-04-21T11:55:21;101289.47;;;12.53;97.44
11440;BME280;5776;51.814;4.510;2023-04-21T11:57:48;101288.41;;;12.54;97.37
11440;BME280;5776;51.814;4.510;2023-04-21T12:00:15;101293.72;;;12.64;97.55
11440;BME280;5776;51.814;4.510;2023-04-21T12:02:41;101283.25;;;12.71;97.38
11440;BME280;5776;51.814;4.510;2023-04-21T12:05:10;101278.13;;;12.70;96.86
11440;BME280;5776;51.814;4.510;2023-04-21T12:07:41;101279.00;;;12.65;96.18
11440;BME280;5776;51.814;4.510;2023-04-21T12:10:12;101275.69;;;12.68;95.29
11440;BME280;5776;51.814;4.510;2023-04-21T12:12:39;101276.66;;;12.78;95.46
11440;BME280;5776;51.814;4.510;2023-04-21T12:15:07;101280.25;;;12.73;94.83
11440;BME280;5776;51.814;4.510;2023-04-21T12:17:46;101273.59;;;12.84;94.07
11440;BME280;5776;51.814;4.510;2023-04-21T12:20:21;101262.63;;;12.89;94.52
11440;BME280;5776;51.814;4.510;2023-04-21T12:22:47;101262.44;;;12.81;94.07
11440;BME280;5776;51.814;4.510;2023-04-21T12:25:14;101258.25;;;12.88;94.82
11440;BME280;5776;51.814;4.510;2023-04-21T12:28:07;101275.94;;;12.91;93.85
11440;BME280;5776;51.814;4.510;2023-04-21T12:30:33;101262.75;;;12.79;92.04
11440;BME280;5776;51.814;4.510;2023-04-21T12:32:59;101254.94;;;12.72;91.19
11440;BME280;5776;51.814;4.510;2023-04-21T12:35:25;101255.38;;;12.80;91.44
11440;BME280;5776;51.814;4.510;2023-04-21T12:37:51;101243.81;;;12.88;91.83
11440;BME280;5776;51.814;4.510;2023-04-21T12:40:17;101245.94;;;12.91;92.26
11440;BME280;5776;51.814;4.510;2023-04-21T12:42:43;101244.13;;;13.05;92.76
11440;BME280;5776;51.814;4.510;2023-04-21T12:45:09;101244.72;;;13.02;92.81
11440;BME280;5776;51.814;4.510;2023-04-21T12:47:35;101247.97;;;13.04;91.89
11440;BME280;5776;51.814;4.510;2023-04-21T12:50:02;101245.31;;;12.99;90.13
11440;BME280;5776;51.814;4.510;2023-04-21T12:52:28;101239.63;;;13.14;90.98
11440;BME280;5776;51.814;4.510;2023-04-21T12:54:54;101238.53;;;13.15;91.40
11440;BME280;5776;51.814;4.510;2023-04-21T12:57:20;101231.53;;;13.09;91.24
11440;BME280;5776;51.814;4.510;2023-04-21T12:59:46;101236.59;;;13.16;91.64
11440;BME280;5776;51.814;4.510;2023-04-21T13:02:12;101232.41;;;13.05;92.21
11440;BME280;5776;51.814;4.510;2023-04-21T13:04:38;101234.75;;;13.11;91.52
11440;BME280;5776;51.814;4.510;2023-04-21T13:07:07;101232.78;;;12.98;90.04
11440;BME280;5776;51.814;4.510;2023-04-21T13:09:33;101230.22;;;13.07;89.87
11440;BME280;5776;51.814;4.510;2023-04-21T13:11:59;101230.84;;;13.17;91.32